Decoded Metar for KPOF (POPULAR BLUFF in MO, USA) (IATA:POF) | Meteo·Mobile Aviation Weather
aviador You're here:

KPOF Decoded Metar

POPULAR BLUFF in MO, USA
Report Time2019-02-22 12:53:00
UTC Time2019-02-22 13:58:59
Flight Rules mvfr MVFR
Wind060° at 08 kt
W.Decomp.*RWY 36: 4.0 kt HW 6.9 kt RCW
W.Rank060° ranks 21
Current wind is above 060° avg. (5.7)
Visibility9999 m
Phenomena:N/A
Clouds:Overcast 027 Hf
Expected CloudBase > 1,600 ft AGL from Temp-Dew spread
Ceiling2,700 ft
Temp05°C (ISA -9)
Dew Point01°C (76% RH)
AAT0.3°C
QNH1024 hPa
Density Alt-1,086 ft
Elevation325 ft
Report Wrong Elevation
Raw Report
KPOF 221253Z AUTO 06008KT 10SM OVC027 05/01 A3023 RMK AO2 SLP240
T00500011=

Extra information for KPOF:More info

Metar Taf Metar & Taf Last 4 Metars F.Rules Stats Wind Profile Meteogram Temp Stats Airport Information Weather charts Add Link Nearby VenuesMetar ALERT Operation Metar Decoded Social comments

AIRNAV info for KPOF